createdAt,value
2016-11-29T00:00:09.149Z,1054.93
2016-11-29T00:01:09.130Z,1054.94
2016-11-29T00:02:09.112Z,1054.87
2016-11-29T00:03:09.097Z,1054.9
2016-11-29T00:04:09.079Z,1054.86
2016-11-29T00:05:09.064Z,1054.79
2016-11-29T00:06:09.045Z,1054.79
2016-11-29T00:07:09.031Z,1054.79
2016-11-29T00:08:09.013Z,1054.76
2016-11-29T00:09:08.993Z,1054.75
2016-11-29T00:10:08.976Z,1054.79
2016-11-29T00:11:08.960Z,1054.79
2016-11-29T00:12:08.943Z,1054.78
2016-11-29T00:13:08.926Z,1054.77
2016-11-29T00:14:08.910Z,1054.79
2016-11-29T00:15:08.891Z,1054.79
2016-11-29T00:16:08.874Z,1054.81
2016-11-29T00:17:08.856Z,1054.87
2016-11-29T00:18:08.840Z,1054.89
2016-11-29T00:19:08.824Z,1054.88
2016-11-29T00:20:08.805Z,1054.83
2016-11-29T00:21:08.788Z,1054.87
2016-11-29T00:22:08.773Z,1054.88
2016-11-29T00:23:08.754Z,1054.8
2016-11-29T00:24:08.736Z,1054.84
2016-11-29T00:25:08.721Z,1054.86
2016-11-29T00:26:08.705Z,1054.81
2016-11-29T00:27:08.686Z,1054.83
2016-11-29T00:28:08.669Z,1054.84
2016-11-29T00:29:08.654Z,1054.88
2016-11-29T00:30:08.637Z,1054.9
2016-11-29T00:31:08.620Z,1054.83
2016-11-29T00:32:08.603Z,1054.87
2016-11-29T00:33:08.586Z,1054.84
2016-11-29T00:34:08.569Z,1054.88
2016-11-29T00:35:08.549Z,1054.85
2016-11-29T00:36:08.532Z,1054.81
2016-11-29T00:37:08.520Z,1054.79
2016-11-29T00:38:08.497Z,1054.81
2016-11-29T00:39:08.482Z,1054.82
2016-11-29T00:40:08.464Z,1054.86
2016-11-29T00:41:08.447Z,1054.87
2016-11-29T00:42:08.431Z,1054.9
2016-11-29T00:43:08.412Z,1054.91
2016-11-29T00:44:08.395Z,1054.93
2016-11-29T00:45:08.379Z,1055.01
2016-11-29T00:46:08.361Z,1055.06
2016-11-29T00:47:08.343Z,1055.08
2016-11-29T00:48:08.328Z,1055.12
2016-11-29T00:49:08.309Z,1055.15
2016-11-29T00:50:08.293Z,1055.14
2016-11-29T00:51:08.274Z,1055.15
2016-11-29T00:52:08.257Z,1055.17
2016-11-29T00:53:08.239Z,1055.19
2016-11-29T00:54:08.224Z,1055.19
2016-11-29T00:55:08.207Z,1055.17
2016-11-29T00:56:08.189Z,1055.15
2016-11-29T00:57:08.170Z,1055.16
2016-11-29T00:58:08.154Z,1055.15
2016-11-29T00:59:08.136Z,1055.11
2016-11-29T01:00:08.121Z,1055.15
2016-11-29T01:01:08.103Z,1055.16
2016-11-29T01:02:08.087Z,1055.19
2016-11-29T01:03:08.068Z,1055.2
2016-11-29T01:04:08.052Z,1055.21
2016-11-29T01:05:08.034Z,1055.16
2016-11-29T01:06:08.018Z,1055.16
2016-11-29T01:07:08.000Z,1055.14
2016-11-29T01:08:07.982Z,1055.15
2016-11-29T01:09:07.965Z,1055.17
2016-11-29T01:10:07.948Z,1055.17
2016-11-29T01:11:07.928Z,1055.21
2016-11-29T01:12:07.913Z,1055.2
2016-11-29T01:13:07.894Z,1055.24
2016-11-29T01:14:07.877Z,1055.22
2016-11-29T01:15:07.859Z,1055.23
2016-11-29T01:16:07.842Z,1055.24
2016-11-29T01:17:07.825Z,1055.23
2016-11-29T01:18:07.810Z,1055.24
2016-11-29T01:19:07.790Z,1055.24
2016-11-29T01:20:07.776Z,1055.2
2016-11-29T01:21:07.760Z,1055.18
2016-11-29T01:22:07.737Z,1055.16
2016-11-29T01:23:07.720Z,1055.13
2016-11-29T01:24:07.705Z,1055.1
2016-11-29T01:25:07.686Z,1055.09
2016-11-29T01:26:07.670Z,1055.07
2016-11-29T01:27:07.651Z,1055.05
2016-11-29T01:28:07.634Z,1055.09
2016-11-29T01:29:07.618Z,1055.11
2016-11-29T01:30:07.600Z,1055.14
2016-11-29T01:31:07.583Z,1055.11
2016-11-29T01:32:07.565Z,1055.14
2016-11-29T01:33:07.548Z,1055.15
2016-11-29T01:34:07.531Z,1055.13
2016-11-29T01:35:07.512Z,1055.11
2016-11-29T01:36:07.496Z,1055.13
2016-11-29T01:37:07.479Z,1055.15
2016-11-29T01:38:07.462Z,1055.11
2016-11-29T01:39:07.442Z,1055.06
2016-11-29T01:40:07.425Z,1055.04
2016-11-29T01:41:07.409Z,1055.02
2016-11-29T01:42:07.392Z,1055.05
2016-11-29T01:43:07.373Z,1055.02
2016-11-29T01:44:07.355Z,1055.06
2016-11-29T01:45:07.339Z,1055.13
2016-11-29T01:46:07.323Z,1055.14
2016-11-29T01:47:07.303Z,1055.14
2016-11-29T01:48:07.286Z,1055.16
2016-11-29T01:49:07.269Z,1055.17
2016-11-29T01:50:07.253Z,1055.18
2016-11-29T01:51:07.234Z,1055.18
2016-11-29T01:52:07.221Z,1055.19
2016-11-29T01:53:07.200Z,1055.22
2016-11-29T01:54:07.181Z,1055.2
2016-11-29T01:55:07.164Z,1055.21
2016-11-29T01:56:07.145Z,1055.2
2016-11-29T01:57:07.129Z,1055.2
2016-11-29T01:58:07.113Z,1055.22
2016-11-29T01:59:07.094Z,1055.23
2016-11-29T02:00:07.076Z,1055.25
2016-11-29T02:01:07.059Z,1055.24
2016-11-29T02:02:07.041Z,1055.27
2016-11-29T02:03:07.025Z,1055.28
2016-11-29T02:04:07.007Z,1055.3
2016-11-29T02:05:06.990Z,1055.28
2016-11-29T02:06:06.972Z,1055.27
2016-11-29T02:07:06.955Z,1055.26
2016-11-29T02:08:06.938Z,1055.26
2016-11-29T02:09:06.921Z,1055.31
2016-11-29T02:10:06.904Z,1055.3
2016-11-29T02:11:06.887Z,1055.32
2016-11-29T02:12:06.868Z,1055.29
2016-11-29T02:13:06.852Z,1055.31
2016-11-29T02:14:06.834Z,1055.3
2016-11-29T02:15:06.817Z,1055.32
2016-11-29T02:16:06.800Z,1055.28
2016-11-29T02:17:06.782Z,1055.27
2016-11-29T02:18:06.763Z,1055.24
2016-11-29T02:19:06.745Z,1055.29
2016-11-29T02:20:06.730Z,1055.26
2016-11-29T02:21:06.711Z,1055.29
2016-11-29T02:22:06.697Z,1055.24
2016-11-29T02:23:06.675Z,1055.21
2016-11-29T02:24:06.659Z,1055.2
2016-11-29T02:25:06.641Z,1055.17
2016-11-29T02:26:06.622Z,1055.14
2016-11-29T02:27:06.607Z,1055.15
2016-11-29T02:28:06.588Z,1055.13
2016-11-29T02:29:06.572Z,1055.09
2016-11-29T02:30:06.552Z,1055.08
2016-11-29T02:31:06.537Z,1055.06
2016-11-29T02:32:06.518Z,1055.02
2016-11-29T02:33:06.499Z,1055
2016-11-29T02:34:06.482Z,1054.97
2016-11-29T02:35:06.465Z,1054.97
2016-11-29T02:36:06.451Z,1054.93
2016-11-29T02:37:06.431Z,1054.92
2016-11-29T02:38:06.411Z,1054.96
2016-11-29T02:39:06.393Z,1054.91
2016-11-29T02:40:06.376Z,1054.9
2016-11-29T02:41:06.362Z,1054.84
2016-11-29T02:42:06.343Z,1054.84
2016-11-29T02:43:06.323Z,1054.81
2016-11-29T02:44:06.315Z,1054.83
2016-11-29T02:45:06.289Z,1054.83
2016-11-29T02:46:06.269Z,1054.82
2016-11-29T02:47:06.254Z,1054.82
2016-11-29T02:48:06.236Z,1054.8
2016-11-29T02:49:06.218Z,1054.85
2016-11-29T02:50:06.204Z,1054.83
2016-11-29T02:51:06.184Z,1054.86
2016-11-29T02:52:06.165Z,1054.82
2016-11-29T02:53:06.148Z,1054.79
2016-11-29T02:54:06.128Z,1054.77
2016-11-29T02:55:06.112Z,1054.82
2016-11-29T02:56:06.094Z,1054.81
2016-11-29T02:57:06.078Z,1054.8
2016-11-29T02:58:06.059Z,1054.85
2016-11-29T02:59:06.041Z,1054.84
2016-11-29T03:00:06.026Z,1054.81
2016-11-29T03:01:06.006Z,1054.83
2016-11-29T03:02:05.990Z,1054.8
2016-11-29T03:03:05.973Z,1054.81
2016-11-29T03:04:05.954Z,1054.8
2016-11-29T03:05:05.936Z,1054.8
2016-11-29T03:06:05.918Z,1054.78
2016-11-29T03:07:05.903Z,1054.79
2016-11-29T03:08:05.882Z,1054.78
2016-11-29T03:09:05.867Z,1054.79
2016-11-29T03:10:05.849Z,1054.84
2016-11-29T03:11:05.830Z,1054.81
2016-11-29T03:12:05.814Z,1054.82
2016-11-29T03:13:05.797Z,1054.81
2016-11-29T03:14:05.777Z,1054.81
2016-11-29T03:15:05.762Z,1054.78
2016-11-29T03:16:05.744Z,1054.76
2016-11-29T03:17:05.726Z,1054.77
2016-11-29T03:18:05.707Z,1054.77
2016-11-29T03:19:05.689Z,1054.8
2016-11-29T03:20:05.674Z,1054.79
2016-11-29T03:21:05.657Z,1054.83
2016-11-29T03:22:05.639Z,1054.78
2016-11-29T03:23:05.621Z,1054.8
2016-11-29T03:24:05.602Z,1054.77
2016-11-29T03:25:05.584Z,1054.74
2016-11-29T03:26:05.567Z,1054.72
2016-11-29T03:27:05.551Z,1054.74
2016-11-29T03:28:05.533Z,1054.73
2016-11-29T03:29:05.514Z,1054.72
2016-11-29T03:30:05.497Z,1054.75
2016-11-29T03:31:05.479Z,1054.74
2016-11-29T03:32:05.461Z,1054.71
2016-11-29T03:33:05.446Z,1054.69
2016-11-29T03:34:05.426Z,1054.7
2016-11-29T03:35:05.410Z,1054.69
2016-11-29T03:36:05.393Z,1054.72
2016-11-29T03:37:05.374Z,1054.69
2016-11-29T03:38:05.356Z,1054.71
2016-11-29T03:39:05.339Z,1054.74
2016-11-29T03:40:05.323Z,1054.73
2016-11-29T03:41:05.305Z,1054.73
2016-11-29T03:42:05.286Z,1054.72
2016-11-29T03:43:05.271Z,1054.69
2016-11-29T03:44:05.254Z,1054.68
2016-11-29T03:45:05.235Z,1054.71
2016-11-29T03:46:05.218Z,1054.72
2016-11-29T03:47:05.199Z,1054.75
2016-11-29T03:48:05.181Z,1054.75
2016-11-29T03:49:05.163Z,1054.74
2016-11-29T03:50:05.146Z,1054.72
2016-11-29T03:51:05.128Z,1054.72
2016-11-29T03:52:05.112Z,1054.77
2016-11-29T03:53:05.093Z,1054.77
2016-11-29T03:54:05.076Z,1054.79
2016-11-29T03:55:05.058Z,1054.76
2016-11-29T03:56:05.041Z,1054.78
2016-11-29T03:57:05.025Z,1054.78
2016-11-29T03:58:05.008Z,1054.79
2016-11-29T03:59:04.987Z,1054.77
2016-11-29T04:00:04.970Z,1054.8
2016-11-29T04:01:04.953Z,1054.83
2016-11-29T04:02:04.936Z,1054.81
2016-11-29T04:03:04.917Z,1054.83
2016-11-29T04:04:04.902Z,1054.86
2016-11-29T04:05:04.885Z,1054.86
2016-11-29T04:06:04.866Z,1054.87
2016-11-29T04:07:04.847Z,1054.95
2016-11-29T04:08:04.830Z,1054.96
2016-11-29T04:09:04.815Z,1054.94
2016-11-29T04:10:04.794Z,1054.91
2016-11-29T04:11:04.779Z,1054.92
2016-11-29T04:12:04.760Z,1054.96
2016-11-29T04:13:04.745Z,1054.94
2016-11-29T04:14:04.725Z,1054.96
2016-11-29T04:15:04.709Z,1054.94
2016-11-29T04:16:04.690Z,1054.93
2016-11-29T04:17:04.674Z,1054.98
2016-11-29T04:18:04.654Z,1054.93
2016-11-29T04:19:04.638Z,1054.91
2016-11-29T04:20:04.622Z,1054.95
2016-11-29T04:21:04.602Z,1054.92
2016-11-29T04:22:04.585Z,1055
2016-11-29T04:23:04.568Z,1055.03
2016-11-29T04:24:04.552Z,1055
2016-11-29T04:25:04.534Z,1055.05
2016-11-29T04:26:04.516Z,1055.04
2016-11-29T04:27:04.498Z,1055.05
2016-11-29T04:28:04.481Z,1055.03
2016-11-29T04:29:04.464Z,1055.04
2016-11-29T04:30:04.445Z,1055.02
2016-11-29T04:31:04.429Z,1055.01
2016-11-29T04:32:04.411Z,1055.01
2016-11-29T04:33:04.394Z,1055.02
2016-11-29T04:34:04.375Z,1055.01
2016-11-29T04:35:04.357Z,1055.04
2016-11-29T04:36:04.340Z,1055.03
2016-11-29T04:37:04.322Z,1055.06
2016-11-29T04:38:04.305Z,1055.04
2016-11-29T04:39:04.287Z,1055.07
2016-11-29T04:40:04.269Z,1055.09
2016-11-29T04:41:04.252Z,1055.07
2016-11-29T04:42:04.235Z,1055.13
2016-11-29T04:43:04.217Z,1055.14
2016-11-29T04:44:04.198Z,1055.15
2016-11-29T04:45:04.182Z,1055.18
2016-11-29T04:46:04.165Z,1055.18
2016-11-29T04:47:04.146Z,1055.16
2016-11-29T04:48:04.129Z,1055.19
2016-11-29T04:49:04.111Z,1055.24
2016-11-29T04:50:04.093Z,1055.2
2016-11-29T04:51:04.080Z,1055.21
2016-11-29T04:52:04.058Z,1055.25
2016-11-29T04:53:04.041Z,1055.19
2016-11-29T04:54:04.023Z,1055.23
2016-11-29T04:55:04.006Z,1055.22
2016-11-29T04:56:03.987Z,1055.24
2016-11-29T04:57:03.971Z,1055.23
2016-11-29T04:58:03.952Z,1055.24
2016-11-29T04:59:03.935Z,1055.25
2016-11-29T05:00:03.918Z,1055.27
2016-11-29T05:01:03.900Z,1055.24
2016-11-29T05:02:03.881Z,1055.25
2016-11-29T05:03:03.864Z,1055.22
2016-11-29T05:04:03.847Z,1055.24
2016-11-29T05:05:03.829Z,1055.22
2016-11-29T05:06:03.811Z,1055.23
2016-11-29T05:07:03.794Z,1055.23
2016-11-29T05:08:03.777Z,1055.26
2016-11-29T05:09:03.758Z,1055.24
2016-11-29T05:10:03.742Z,1055.27
2016-11-29T05:11:03.723Z,1055.27
2016-11-29T05:12:03.706Z,1055.26
2016-11-29T05:13:03.688Z,1055.27
2016-11-29T05:14:03.671Z,1055.28
2016-11-29T05:15:03.655Z,1055.26
2016-11-29T05:16:03.635Z,1055.22
2016-11-29T05:17:03.618Z,1055.23
2016-11-29T05:18:03.603Z,1055.22
2016-11-29T05:19:03.585Z,1055.25
2016-11-29T05:20:03.565Z,1055.25
2016-11-29T05:21:03.548Z,1055.28
2016-11-29T05:22:03.531Z,1055.28
2016-11-29T05:23:03.515Z,1055.27
2016-11-29T05:24:03.496Z,1055.21
2016-11-29T05:25:03.479Z,1055.21
2016-11-29T05:26:03.460Z,1055.22
2016-11-29T05:27:03.446Z,1055.23
2016-11-29T05:28:03.425Z,1055.21
2016-11-29T05:29:03.407Z,1055.26
2016-11-29T05:30:03.391Z,1055.23
2016-11-29T05:31:03.372Z,1055.2
2016-11-29T05:32:03.355Z,1055.18
2016-11-29T05:33:03.337Z,1055.19
2016-11-29T05:34:03.320Z,1055.17
2016-11-29T05:35:03.302Z,1055.17
2016-11-29T05:36:03.284Z,1055.11
2016-11-29T05:37:03.267Z,1055.1
2016-11-29T05:38:03.549Z,1055.13
2016-11-29T05:39:03.231Z,1055.11
2016-11-29T05:40:03.214Z,1055.05
2016-11-29T05:41:03.197Z,1055.08
2016-11-29T05:42:03.181Z,1055.05
2016-11-29T05:43:03.161Z,1055.1
2016-11-29T05:44:03.144Z,1055.07
2016-11-29T05:45:03.124Z,1055.07
2016-11-29T05:46:03.109Z,1055
2016-11-29T05:47:03.089Z,1055
2016-11-29T05:48:03.072Z,1055.02
2016-11-29T05:49:03.054Z,1054.99
2016-11-29T05:50:03.038Z,1054.99
2016-11-29T05:51:03.020Z,1055
2016-11-29T05:52:03.003Z,1055
2016-11-29T05:53:02.984Z,1055.02
2016-11-29T05:54:02.968Z,1055.05
2016-11-29T05:55:02.952Z,1055.03
2016-11-29T05:56:02.934Z,1055.01
2016-11-29T05:57:02.916Z,1054.98
2016-11-29T05:58:02.900Z,1054.96
2016-11-29T05:59:02.881Z,1054.99
2016-11-29T06:00:02.867Z,1054.98
2016-11-29T06:01:02.847Z,1055.03
2016-11-29T06:02:02.829Z,1055.01
2016-11-29T06:03:02.810Z,1055.01
2016-11-29T06:04:02.792Z,1055
2016-11-29T06:05:02.777Z,1055.02
2016-11-29T06:06:02.759Z,1054.99
2016-11-29T06:07:02.741Z,1055.01
2016-11-29T06:08:02.722Z,1055.02
2016-11-29T06:09:02.705Z,1055.02
2016-11-29T06:10:02.689Z,1055.05
2016-11-29T06:11:02.671Z,1055.04
2016-11-29T06:12:02.654Z,1055.02
2016-11-29T06:13:02.636Z,1054.99
2016-11-29T06:14:02.620Z,1054.98
2016-11-29T06:15:02.601Z,1054.96
2016-11-29T06:16:02.584Z,1054.97
2016-11-29T06:17:02.567Z,1054.97
2016-11-29T06:18:02.549Z,1054.97
2016-11-29T06:19:02.530Z,1054.99
2016-11-29T06:20:02.513Z,1054.99
2016-11-29T06:21:02.496Z,1055.02
2016-11-29T06:22:02.480Z,1055.01
2016-11-29T06:23:02.460Z,1054.99
2016-11-29T06:24:02.445Z,1055.05
2016-11-29T06:25:02.427Z,1055.02
2016-11-29T06:26:02.409Z,1055.05
2016-11-29T06:27:02.390Z,1055.01
2016-11-29T06:28:02.373Z,1054.98
2016-11-29T06:29:02.357Z,1055.03
2016-11-29T06:30:02.338Z,1055.05
2016-11-29T06:31:02.321Z,1055.08
2016-11-29T06:32:02.306Z,1055.09
2016-11-29T06:33:02.288Z,1055.11
2016-11-29T06:34:02.270Z,1055.12
2016-11-29T06:35:02.251Z,1055.15
2016-11-29T06:36:02.234Z,1055.14
2016-11-29T06:37:02.217Z,1055.14
2016-11-29T06:38:02.200Z,1055.16
2016-11-29T06:39:02.181Z,1055.13
2016-11-29T06:40:02.165Z,1055.13
2016-11-29T06:41:02.146Z,1055.12
2016-11-29T06:42:02.130Z,1055.09
2016-11-29T06:43:02.112Z,1055.1
2016-11-29T06:44:02.095Z,1055.07
2016-11-29T06:45:02.078Z,1055.08
2016-11-29T06:46:02.061Z,1055.11
2016-11-29T06:47:02.042Z,1055.09
2016-11-29T06:48:02.027Z,1055.08
2016-11-29T06:49:02.008Z,1055.06
2016-11-29T06:50:01.991Z,1055.08
2016-11-29T06:51:01.974Z,1055.06
2016-11-29T06:52:01.955Z,1055.07
2016-11-29T06:53:01.938Z,1055.01
2016-11-29T06:54:01.921Z,1055.06
2016-11-29T06:55:01.905Z,1055.07
2016-11-29T06:56:01.888Z,1055.06
2016-11-29T06:57:01.868Z,1055.09
2016-11-29T06:58:01.850Z,1055.09
2016-11-29T06:59:01.833Z,1055.12
2016-11-29T07:00:01.816Z,1055.08
2016-11-29T07:01:01.799Z,1055.1
2016-11-29T07:02:01.781Z,1055.13
2016-11-29T07:03:01.766Z,1055.1
2016-11-29T07:04:01.748Z,1055.09
2016-11-29T07:05:01.732Z,1055.1
2016-11-29T07:06:01.714Z,1055.09
2016-11-29T07:07:01.696Z,1055.08
2016-11-29T07:08:01.677Z,1055.05
2016-11-29T07:09:01.659Z,1055.01
2016-11-29T07:10:01.644Z,1055.02
2016-11-29T07:11:01.626Z,1054.98
2016-11-29T07:12:01.610Z,1054.96
2016-11-29T07:13:01.590Z,1054.98
2016-11-29T07:14:01.573Z,1054.92
2016-11-29T07:15:01.558Z,1054.88
2016-11-29T07:16:01.539Z,1054.85
2016-11-29T07:17:01.521Z,1054.87
2016-11-29T07:18:01.506Z,1054.85
2016-11-29T07:19:01.489Z,1054.84
2016-11-29T07:20:01.469Z,1054.83
2016-11-29T07:21:01.454Z,1054.79
2016-11-29T07:22:01.440Z,1054.76
2016-11-29T07:23:01.420Z,1054.76
2016-11-29T07:24:01.401Z,1054.74
2016-11-29T07:25:01.383Z,1054.73
2016-11-29T07:26:01.368Z,1054.76
2016-11-29T07:27:01.351Z,1054.72
2016-11-29T07:28:01.334Z,1054.69
2016-11-29T07:29:01.314Z,1054.66
2016-11-29T07:30:01.300Z,1054.62
2016-11-29T07:31:01.282Z,1054.61
2016-11-29T07:32:01.265Z,1054.6
2016-11-29T07:33:01.248Z,1054.53
2016-11-29T07:34:01.230Z,1054.53
2016-11-29T07:35:01.212Z,1054.57
2016-11-29T07:36:01.195Z,1054.57
2016-11-29T07:37:01.178Z,1054.48
2016-11-29T07:38:01.163Z,1054.5
2016-11-29T07:39:01.143Z,1054.45
2016-11-29T07:40:01.128Z,1054.41
2016-11-29T07:41:01.111Z,1054.43
2016-11-29T07:42:01.095Z,1054.4
2016-11-29T07:43:01.079Z,1054.38
2016-11-29T07:44:01.059Z,1054.37
2016-11-29T07:45:01.045Z,1054.35
2016-11-29T07:46:01.025Z,1054.37
2016-11-29T07:47:01.009Z,1054.37
2016-11-29T07:48:00.992Z,1054.34
2016-11-29T07:49:00.975Z,1054.37
2016-11-29T07:50:00.960Z,1054.33
2016-11-29T07:51:00.944Z,1054.32
2016-11-29T07:52:00.926Z,1054.26
2016-11-29T07:53:00.908Z,1054.27
2016-11-29T07:54:00.891Z,1054.27
2016-11-29T07:55:00.876Z,1054.27
2016-11-29T07:56:00.861Z,1054.26
2016-11-29T07:57:00.842Z,1054.26
2016-11-29T07:58:00.825Z,1054.21
2016-11-29T07:59:00.809Z,1054.22
2016-11-29T08:00:00.794Z,1054.22
2016-11-29T08:01:00.775Z,1054.14
2016-11-29T08:02:00.758Z,1054.19
2016-11-29T08:03:00.744Z,1054.14
2016-11-29T08:04:00.727Z,1054.18
2016-11-29T08:05:00.709Z,1054.16
2016-11-29T08:06:00.692Z,1054.15
2016-11-29T08:07:00.678Z,1054.09
2016-11-29T08:08:00.660Z,1054.12
2016-11-29T08:09:00.644Z,1054.08
2016-11-29T08:10:00.628Z,1054.09
2016-11-29T08:11:00.611Z,1054.04
2016-11-29T08:12:00.594Z,1054.11
2016-11-29T08:13:00.578Z,1054.11
2016-11-29T08:14:00.560Z,1054.16
2016-11-29T08:15:00.545Z,1054.11
2016-11-29T08:16:00.530Z,1054.16
2016-11-29T08:17:00.511Z,1054.1
2016-11-29T08:18:00.494Z,1054.12
2016-11-29T08:19:00.479Z,1054.15
2016-11-29T08:20:00.462Z,1054.13
2016-11-29T08:21:00.447Z,1054.13
2016-11-29T08:22:00.429Z,1054.1
2016-11-29T08:23:00.416Z,1054.16
2016-11-29T08:24:00.397Z,1054.06
2016-11-29T08:25:00.384Z,1054.15
2016-11-29T08:26:00.366Z,1054.08
2016-11-29T08:27:00.350Z,1054.1
2016-11-29T08:28:00.334Z,1054.05
2016-11-29T08:29:00.318Z,1054.02
2016-11-29T08:30:00.301Z,1054.01
2016-11-29T08:31:00.283Z,1053.99
2016-11-29T08:32:00.266Z,1053.99
2016-11-29T08:33:00.250Z,1054.04
2016-11-29T08:34:00.234Z,1053.99
2016-11-29T08:35:00.220Z,1053.96
2016-11-29T08:36:00.204Z,1053.96
2016-11-29T08:37:00.186Z,1053.92
2016-11-29T08:38:00.169Z,1053.95
2016-11-29T08:39:00.154Z,1053.91
2016-11-29T08:40:00.139Z,1053.92
2016-11-29T08:41:00.122Z,1053.87
2016-11-29T08:42:00.115Z,1053.88
2016-11-29T08:43:00.091Z,1053.88
2016-11-29T08:44:00.074Z,1053.88
2016-11-29T08:45:00.058Z,1053.89
2016-11-29T08:46:00.041Z,1053.85
2016-11-29T08:47:00.026Z,1053.82
2016-11-29T08:48:00.011Z,1053.84
2016-11-29T08:48:59.994Z,1053.81
2016-11-29T08:49:59.978Z,1053.77
2016-11-29T08:50:59.960Z,1053.77
2016-11-29T08:51:59.943Z,1053.76
2016-11-29T08:52:59.930Z,1053.71
2016-11-29T08:53:59.913Z,1053.71
2016-11-29T08:54:59.895Z,1053.71
2016-11-29T08:55:59.881Z,1053.67
2016-11-29T08:56:59.865Z,1053.61
2016-11-29T08:57:59.850Z,1053.61
2016-11-29T08:58:59.834Z,1053.59
2016-11-29T08:59:59.818Z,1053.56
2016-11-29T09:00:59.801Z,1053.58
2016-11-29T09:01:59.788Z,1053.56
2016-11-29T09:02:59.770Z,1053.56
2016-11-29T09:03:59.755Z,1053.49
2016-11-29T09:04:59.739Z,1053.58
2016-11-29T09:05:59.722Z,1053.49
2016-11-29T09:06:59.706Z,1053.54
2016-11-29T09:07:59.694Z,1053.56
2016-11-29T09:08:59.675Z,1053.48
2016-11-29T09:09:59.661Z,1053.49
2016-11-29T09:10:59.644Z,1053.45
2016-11-29T09:11:59.630Z,1053.45
2016-11-29T09:12:59.624Z,1053.43
2016-11-29T09:13:59.597Z,1053.37
2016-11-29T09:14:59.582Z,1053.38
2016-11-29T09:15:59.567Z,1053.39
2016-11-29T09:16:59.552Z,1053.39
2016-11-29T09:17:59.537Z,1053.38
2016-11-29T09:18:59.522Z,1053.36
2016-11-29T09:19:59.505Z,1053.36
2016-11-29T09:20:59.489Z,1053.3
2016-11-29T09:21:59.474Z,1053.3
2016-11-29T09:22:59.462Z,1053.28
2016-11-29T09:23:59.445Z,1053.26
2016-11-29T09:24:59.428Z,1053.16
2016-11-29T09:25:59.415Z,1053.18
2016-11-29T09:26:59.399Z,1053.2
2016-11-29T09:27:59.384Z,1053.12
2016-11-29T09:28:59.369Z,1053.09
2016-11-29T09:29:59.354Z,1053.12
2016-11-29T09:30:59.339Z,1053.15
2016-11-29T09:31:59.323Z,1053.1
2016-11-29T09:32:59.307Z,1053.13
2016-11-29T09:33:59.292Z,1053.15
2016-11-29T09:34:59.281Z,1053.11
2016-11-29T09:35:59.262Z,1053.11
2016-11-29T09:36:59.248Z,1053.07
2016-11-29T09:37:59.231Z,1053.06
2016-11-29T09:38:59.217Z,1053.06
2016-11-29T09:39:59.201Z,1053.02
2016-11-29T09:40:59.187Z,1053
2016-11-29T09:41:59.173Z,1052.98
2016-11-29T09:42:59.158Z,1052.96
2016-11-29T09:43:59.141Z,1052.95
2016-11-29T09:44:59.129Z,1052.89
2016-11-29T09:45:59.112Z,1052.85
2016-11-29T09:46:59.098Z,1052.85
2016-11-29T09:47:59.084Z,1052.84
2016-11-29T09:48:59.069Z,1052.76
2016-11-29T09:49:59.053Z,1052.75
2016-11-29T09:50:59.037Z,1052.76
2016-11-29T09:51:59.022Z,1052.71
2016-11-29T09:52:59.010Z,1052.69
2016-11-29T09:53:58.994Z,1052.68
2016-11-29T09:54:58.979Z,1052.71
2016-11-29T09:55:58.964Z,1052.72
2016-11-29T09:56:58.948Z,1052.71
2016-11-29T09:57:58.936Z,1052.67
2016-11-29T09:58:58.921Z,1052.67
2016-11-29T09:59:58.907Z,1052.64
2016-11-29T10:00:58.892Z,1052.59
2016-11-29T10:01:58.876Z,1052.57
2016-11-29T10:02:58.861Z,1052.58
2016-11-29T10:03:58.849Z,1052.55
2016-11-29T10:04:58.831Z,1052.6
2016-11-29T10:05:58.818Z,1052.58
2016-11-29T10:06:58.805Z,1052.57
2016-11-29T10:07:58.788Z,1052.59
2016-11-29T10:08:58.775Z,1052.51
2016-11-29T10:09:58.758Z,1052.44
2016-11-29T10:10:58.744Z,1052.45
2016-11-29T10:11:58.731Z,1052.42
2016-11-29T10:12:58.714Z,1052.36
2016-11-29T10:13:58.702Z,1052.37
2016-11-29T10:14:58.686Z,1052.34
2016-11-29T10:15:58.672Z,1052.3
2016-11-29T10:16:58.658Z,1052.36
2016-11-29T10:17:58.644Z,1052.32
2016-11-29T10:18:58.627Z,1052.38
2016-11-29T10:19:58.613Z,1052.31
2016-11-29T10:20:58.599Z,1052.32
2016-11-29T10:21:58.586Z,1052.25
2016-11-29T10:22:58.572Z,1052.27
2016-11-29T10:23:58.557Z,1052.27
2016-11-29T10:24:58.542Z,1052.22
2016-11-29T10:25:58.529Z,1052.21
2016-11-29T10:26:58.514Z,1052.22
2016-11-29T10:27:58.500Z,1052.21
2016-11-29T10:28:58.484Z,1052.16
2016-11-29T10:29:58.469Z,1052.17
2016-11-29T10:30:58.455Z,1052.14
2016-11-29T10:31:58.441Z,1052.15
2016-11-29T10:32:58.429Z,1052.09
2016-11-29T10:33:58.414Z,1052.16
2016-11-29T10:34:58.400Z,1052.07
2016-11-29T10:35:58.384Z,1052.1
2016-11-29T10:36:58.370Z,1052.05
2016-11-29T10:37:58.356Z,1052.05
2016-11-29T10:38:58.343Z,1051.98
2016-11-29T10:39:58.329Z,1051.91
2016-11-29T10:40:58.315Z,1051.94
2016-11-29T10:41:58.299Z,1051.88
2016-11-29T10:42:58.287Z,1051.89
2016-11-29T10:43:58.275Z,1051.89
2016-11-29T10:44:58.259Z,1051.88
2016-11-29T10:45:58.243Z,1051.85
2016-11-29T10:46:58.231Z,1051.84
2016-11-29T10:47:58.215Z,1051.85
2016-11-29T10:48:58.200Z,1051.83
2016-11-29T10:49:58.188Z,1051.78
2016-11-29T10:50:58.174Z,1051.75
2016-11-29T10:51:58.160Z,1051.71
2016-11-29T10:52:58.146Z,1051.71
2016-11-29T10:53:58.132Z,1051.7
2016-11-29T10:54:58.117Z,1051.66
2016-11-29T10:55:58.104Z,1051.64
2016-11-29T10:56:58.091Z,1051.6
2016-11-29T10:57:58.075Z,1051.57
2016-11-29T10:58:58.061Z,1051.57
2016-11-29T10:59:58.048Z,1051.56
2016-11-29T11:00:58.034Z,1051.53
2016-11-29T11:01:58.022Z,1051.58
2016-11-29T11:02:58.005Z,1051.48
2016-11-29T11:03:57.995Z,1051.5
2016-11-29T11:04:57.982Z,1051.5
2016-11-29T11:05:57.967Z,1051.46
2016-11-29T11:06:57.952Z,1051.42
2016-11-29T11:07:57.942Z,1051.39
2016-11-29T11:08:57.924Z,1051.41
2016-11-29T11:09:57.911Z,1051.41
2016-11-29T11:10:57.898Z,1051.46
2016-11-29T11:11:57.883Z,1051.41
2016-11-29T11:12:57.870Z,1051.35
2016-11-29T11:13:57.854Z,1051.32
2016-11-29T11:14:57.841Z,1051.32
2016-11-29T11:15:57.829Z,1051.32
2016-11-29T11:16:57.817Z,1051.31
2016-11-29T11:17:57.802Z,1051.29
2016-11-29T11:18:57.787Z,1051.3
2016-11-29T11:19:57.776Z,1051.28
2016-11-29T11:20:57.760Z,1051.27
2016-11-29T11:21:57.747Z,1051.24
2016-11-29T11:22:57.734Z,1051.22
2016-11-29T11:23:57.719Z,1051.12
2016-11-29T11:24:57.707Z,1051.16
2016-11-29T11:25:57.692Z,1051.15
2016-11-29T11:26:57.679Z,1051.11
2016-11-29T11:27:57.667Z,1051.06
2016-11-29T11:28:57.652Z,1051.05
2016-11-29T11:29:57.641Z,1051.06
2016-11-29T11:30:57.625Z,1051.08
2016-11-29T11:31:57.615Z,1051.07
2016-11-29T11:32:57.602Z,1051.08
2016-11-29T11:33:57.589Z,1051.04
2016-11-29T11:34:57.575Z,1051.06
2016-11-29T11:35:57.559Z,1051.1
2016-11-29T11:36:57.546Z,1051.04
2016-11-29T11:37:57.534Z,1051.01
2016-11-29T11:38:57.522Z,1051.05
2016-11-29T11:39:57.509Z,1051.06
2016-11-29T11:40:57.492Z,1051.1
2016-11-29T11:41:57.482Z,1051.09
2016-11-29T11:42:57.465Z,1051.09
2016-11-29T11:43:57.455Z,1051.05
2016-11-29T11:44:57.439Z,1051.07
2016-11-29T11:45:57.629Z,1051.08
2016-11-29T11:46:57.415Z,1051.04
2016-11-29T11:47:57.400Z,1051.05
2016-11-29T11:48:57.387Z,1051
2016-11-29T11:49:57.374Z,1050.99
2016-11-29T11:50:57.360Z,1050.98
2016-11-29T11:51:57.348Z,1050.92
2016-11-29T11:52:57.336Z,1050.91
2016-11-29T11:53:57.320Z,1050.88
2016-11-29T11:54:57.307Z,1050.88
2016-11-29T11:55:57.297Z,1050.85
2016-11-29T11:56:57.282Z,1050.84
2016-11-29T11:57:57.270Z,1050.83
2016-11-29T11:58:57.255Z,1050.82
2016-11-29T11:59:57.248Z,1050.8
2016-11-29T12:00:57.229Z,1050.77
2016-11-29T12:01:57.218Z,1050.73
2016-11-29T12:02:57.205Z,1050.74
2016-11-29T12:03:57.190Z,1050.79
2016-11-29T12:04:57.178Z,1050.75
2016-11-29T12:05:57.164Z,1050.81
2016-11-29T12:06:57.153Z,1050.78
2016-11-29T12:07:57.137Z,1050.72